sensor_id;sensor_type;location;lat;lon;timestamp;P1;durP1;ratioP1;P2;durP2;ratioP2
6775;SDS011;3425;51.376;5.222;2024-02-26T00:02:22;0.50;;;0.50;;
6775;SDS011;3425;51.376;5.222;2024-02-26T00:04:50;3.50;;;0.60;;
6775;SDS011;3425;51.376;5.222;2024-02-26T00:07:17;0.40;;;0.40;;
6775;SDS011;3425;51.376;5.222;2024-02-26T00:09:44;0.50;;;0.50;;
6775;SDS011;3425;51.376;5.222;2024-02-26T00:12:12;0.45;;;0.45;;
6775;SDS011;3425;51.376;5.222;2024-02-26T00:14:39;0.63;;;0.63;;
6775;SDS011;3425;51.376;5.222;2024-02-26T00:17:07;1.00;;;0.88;;
6775;SDS011;3425;51.376;5.222;2024-02-26T00:19:35;0.55;;;0.55;;
6775;SDS011;3425;51.376;5.222;2024-02-26T00:22:02;0.40;;;0.40;;
6775;SDS011;3425;51.376;5.222;2024-02-26T00:24:30;0.40;;;0.40;;
6775;SDS011;3425;51.376;5.222;2024-02-26T00:26:58;0.57;;;0.57;;
6775;SDS011;3425;51.376;5.222;2024-02-26T00:29:26;0.65;;;0.65;;
6775;SDS011;3425;51.376;5.222;2024-02-26T00:31:53;0.35;;;0.35;;
6775;SDS011;3425;51.376;5.222;2024-02-26T00:34:20;0.40;;;0.40;;
6775;SDS011;3425;51.376;5.222;2024-02-26T00:36:48;0.70;;;0.70;;
6775;SDS011;3425;51.376;5.222;2024-02-26T00:39:15;0.50;;;0.50;;
6775;SDS011;3425;51.376;5.222;2024-02-26T00:41:43;0.50;;;0.50;;
6775;SDS011;3425;51.376;5.222;2024-02-26T00:44:10;0.40;;;0.40;;
6775;SDS011;3425;51.376;5.222;2024-02-26T00:46:37;0.40;;;0.40;;
6775;SDS011;3425;51.376;5.222;2024-02-26T00:49:05;0.95;;;0.77;;
6775;SDS011;3425;51.376;5.222;2024-02-26T00:51:32;1.50;;;1.40;;
6775;SDS011;3425;51.376;5.222;2024-02-26T00:54:00;0.43;;;0.43;;
6775;SDS011;3425;51.376;5.222;2024-02-26T00:56:27;1.55;;;1.23;;
6775;SDS011;3425;51.376;5.222;2024-02-26T00:58:55;0.85;;;0.85;;
6775;SDS011;3425;51.376;5.222;2024-02-26T01:01:22;0.60;;;0.60;;
6775;SDS011;3425;51.376;5.222;2024-02-26T01:03:49;0.40;;;0.40;;
6775;SDS011;3425;51.376;5.222;2024-02-26T01:06:17;0.40;;;0.40;;
6775;SDS011;3425;51.376;5.222;2024-02-26T01:08:44;0.60;;;0.60;;
6775;SDS011;3425;51.376;5.222;2024-02-26T01:11:12;4.38;;;1.20;;
6775;SDS011;3425;51.376;5.222;2024-02-26T01:13:40;1.70;;;1.60;;
6775;SDS011;3425;51.376;5.222;2024-02-26T01:16:07;1.77;;;1.67;;
6775;SDS011;3425;51.376;5.222;2024-02-26T01:18:34;0.90;;;0.90;;
6775;SDS011;3425;51.376;5.222;2024-02-26T01:21:02;0.80;;;0.80;;
6775;SDS011;3425;51.376;5.222;2024-02-26T01:23:33;0.60;;;0.60;;
6775;SDS011;3425;51.376;5.222;2024-02-26T01:26:00;0.60;;;0.60;;
6775;SDS011;3425;51.376;5.222;2024-02-26T01:28:29;0.70;;;0.70;;
6775;SDS011;3425;51.376;5.222;2024-02-26T01:30:56;1.60;;;0.82;;
6775;SDS011;3425;51.376;5.222;2024-02-26T01:33:25;1.08;;;1.08;;
6775;SDS011;3425;51.376;5.222;2024-02-26T01:35:52;1.80;;;1.75;;
6775;SDS011;3425;51.376;5.222;2024-02-26T01:38:20;1.60;;;1.60;;
6775;SDS011;3425;51.376;5.222;2024-02-26T01:40:47;2.20;;;2.10;;
6775;SDS011;3425;51.376;5.222;2024-02-26T01:43:14;2.80;;;2.70;;
6775;SDS011;3425;51.376;5.222;2024-02-26T01:45:41;2.38;;;2.38;;
6775;SDS011;3425;51.376;5.222;2024-02-26T01:48:09;2.83;;;2.72;;
6775;SDS011;3425;51.376;5.222;2024-02-26T01:50:37;3.60;;;3.50;;
6775;SDS011;3425;51.376;5.222;2024-02-26T01:53:05;2.97;;;2.88;;
6775;SDS011;3425;51.376;5.222;2024-02-26T01:55:33;4.70;;;4.30;;
6775;SDS011;3425;51.376;5.222;2024-02-26T01:58:00;4.65;;;4.45;;
6775;SDS011;3425;51.376;5.222;2024-02-26T02:00:28;4.20;;;4.10;;
6775;SDS011;3425;51.376;5.222;2024-02-26T02:02:55;4.30;;;4.20;;
6775;SDS011;3425;51.376;5.222;2024-02-26T02:05:23;4.97;;;4.78;;
6775;SDS011;3425;51.376;5.222;2024-02-26T02:07:51;8.13;;;7.25;;
6775;SDS011;3425;51.376;5.222;2024-02-26T02:10:19;6.40;;;6.10;;
6775;SDS011;3425;51.376;5.222;2024-02-26T02:12:49;7.70;;;7.40;;
6775;SDS011;3425;51.376;5.222;2024-02-26T02:15:17;7.50;;;7.20;;
6775;SDS011;3425;51.376;5.222;2024-02-26T02:17:44;8.15;;;7.80;;
6775;SDS011;3425;51.376;5.222;2024-02-26T02:20:15;8.80;;;8.40;;
6775;SDS011;3425;51.376;5.222;2024-02-26T02:22:46;10.65;;;9.75;;
6775;SDS011;3425;51.376;5.222;2024-02-26T02:25:14;10.10;;;9.60;;
6775;SDS011;3425;51.376;5.222;2024-02-26T02:27:41;9.60;;;9.20;;
6775;SDS011;3425;51.376;5.222;2024-02-26T02:30:10;10.30;;;9.80;;
6775;SDS011;3425;51.376;5.222;2024-02-26T02:32:38;10.82;;;10.32;;
6775;SDS011;3425;51.376;5.222;2024-02-26T02:35:08;9.98;;;9.50;;
6775;SDS011;3425;51.376;5.222;2024-02-26T02:37:35;12.43;;;11.82;;
6775;SDS011;3425;51.376;5.222;2024-02-26T02:40:03;14.55;;;13.50;;
6775;SDS011;3425;51.376;5.222;2024-02-26T02:42:31;13.75;;;13.15;;
6775;SDS011;3425;51.376;5.222;2024-02-26T02:44:59;15.43;;;14.63;;
6775;SDS011;3425;51.376;5.222;2024-02-26T02:47:26;15.93;;;14.88;;
6775;SDS011;3425;51.376;5.222;2024-02-26T02:49:53;15.20;;;14.50;;
6775;SDS011;3425;51.376;5.222;2024-02-26T02:52:21;15.50;;;14.80;;
6775;SDS011;3425;51.376;5.222;2024-02-26T02:54:48;16.83;;;16.02;;
6775;SDS011;3425;51.376;5.222;2024-02-26T02:57:15;16.45;;;15.65;;
6775;SDS011;3425;51.376;5.222;2024-02-26T02:59:43;17.60;;;16.70;;
6775;SDS011;3425;51.376;5.222;2024-02-26T03:02:10;17.42;;;16.60;;
6775;SDS011;3425;51.376;5.222;2024-02-26T03:04:37;17.85;;;16.95;;
6775;SDS011;3425;51.376;5.222;2024-02-26T03:07:05;18.42;;;17.52;;
6775;SDS011;3425;51.376;5.222;2024-02-26T03:09:32;18.15;;;17.25;;
6775;SDS011;3425;51.376;5.222;2024-02-26T03:11:59;19.02;;;18.13;;
6775;SDS011;3425;51.376;5.222;2024-02-26T03:14:27;19.90;;;18.90;;
6775;SDS011;3425;51.376;5.222;2024-02-26T03:16:54;19.38;;;18.45;;
6775;SDS011;3425;51.376;5.222;2024-02-26T03:19:21;20.70;;;19.70;;
6775;SDS011;3425;51.376;5.222;2024-02-26T03:21:52;21.05;;;19.85;;
6775;SDS011;3425;51.376;5.222;2024-02-26T03:24:19;21.55;;;20.52;;
6775;SDS011;3425;51.376;5.222;2024-02-26T03:26:46;22.70;;;21.52;;
6775;SDS011;3425;51.376;5.222;2024-02-26T03:29:14;23.67;;;22.48;;
6775;SDS011;3425;51.376;5.222;2024-02-26T03:31:41;22.80;;;21.70;;
6775;SDS011;3425;51.376;5.222;2024-02-26T03:34:08;22.55;;;21.45;;
6775;SDS011;3425;51.376;5.222;2024-02-26T03:36:36;23.50;;;22.33;;
6775;SDS011;3425;51.376;5.222;2024-02-26T03:39:03;24.55;;;23.25;;
6775;SDS011;3425;51.376;5.222;2024-02-26T03:41:34;24.80;;;23.60;;
6775;SDS011;3425;51.376;5.222;2024-02-26T03:44:01;25.40;;;24.10;;
6775;SDS011;3425;51.376;5.222;2024-02-26T03:46:29;24.70;;;23.40;;
6775;SDS011;3425;51.376;5.222;2024-02-26T03:48:56;25.77;;;24.48;;
6775;SDS011;3425;51.376;5.222;2024-02-26T03:51:24;26.50;;;25.20;;
6775;SDS011;3425;51.376;5.222;2024-02-26T03:53:51;28.40;;;26.90;;
6775;SDS011;3425;51.376;5.222;2024-02-26T03:56:18;28.38;;;26.98;;
6775;SDS011;3425;51.376;5.222;2024-02-26T03:58:46;28.45;;;27.05;;
6775;SDS011;3425;51.376;5.222;2024-02-26T04:01:14;31.55;;;29.85;;
6775;SDS011;3425;51.376;5.222;2024-02-26T04:03:41;31.55;;;29.95;;
6775;SDS011;3425;51.376;5.222;2024-02-26T04:06:10;34.17;;;32.05;;
6775;SDS011;3425;51.376;5.222;2024-02-26T04:08:37;31.20;;;29.60;;
6775;SDS011;3425;51.376;5.222;2024-02-26T04:11:05;30.33;;;28.83;;
6775;SDS011;3425;51.376;5.222;2024-02-26T04:13:34;34.10;;;32.20;;
6775;SDS011;3425;51.376;5.222;2024-02-26T04:16:01;33.45;;;31.75;;
6775;SDS011;3425;51.376;5.222;2024-02-26T04:18:29;31.83;;;30.23;;
6775;SDS011;3425;51.376;5.222;2024-02-26T04:20:56;33.22;;;31.42;;
6775;SDS011;3425;51.376;5.222;2024-02-26T04:23:24;34.28;;;32.47;;
6775;SDS011;3425;51.376;5.222;2024-02-26T04:25:51;34.17;;;32.45;;
6775;SDS011;3425;51.376;5.222;2024-02-26T04:28:19;36.15;;;34.22;;
6775;SDS011;3425;51.376;5.222;2024-02-26T04:30:47;36.25;;;34.42;;
6775;SDS011;3425;51.376;5.222;2024-02-26T04:33:14;35.53;;;33.72;;
6775;SDS011;3425;51.376;5.222;2024-02-26T04:35:43;36.78;;;34.88;;
6775;SDS011;3425;51.376;5.222;2024-02-26T04:38:10;37.15;;;35.25;;
6775;SDS011;3425;51.376;5.222;2024-02-26T04:40:37;36.03;;;34.22;;
6775;SDS011;3425;51.376;5.222;2024-02-26T04:43:05;36.03;;;34.17;;
6775;SDS011;3425;51.376;5.222;2024-02-26T04:45:32;36.88;;;34.97;;
6775;SDS011;3425;51.376;5.222;2024-02-26T04:47:59;40.80;;;38.60;;
6775;SDS011;3425;51.376;5.222;2024-02-26T04:50:27;38.25;;;36.22;;
6775;SDS011;3425;51.376;5.222;2024-02-26T04:52:54;40.92;;;38.63;;
6775;SDS011;3425;51.376;5.222;2024-02-26T04:55:21;41.00;;;38.90;;
6775;SDS011;3425;51.376;5.222;2024-02-26T04:57:49;41.08;;;38.97;;
6775;SDS011;3425;51.376;5.222;2024-02-26T05:00:16;44.20;;;41.90;;
6775;SDS011;3425;51.376;5.222;2024-02-26T05:02:44;46.40;;;43.90;;
6775;SDS011;3425;51.376;5.222;2024-02-26T05:05:12;45.88;;;43.47;;
6775;SDS011;3425;51.376;5.222;2024-02-26T05:07:40;43.92;;;41.63;;
6775;SDS011;3425;51.376;5.222;2024-02-26T05:10:08;48.22;;;45.67;;
6775;SDS011;3425;51.376;5.222;2024-02-26T05:12:35;49.85;;;47.15;;
6775;SDS011;3425;51.376;5.222;2024-02-26T05:15:03;50.13;;;47.45;;
6775;SDS011;3425;51.376;5.222;2024-02-26T05:17:30;50.97;;;48.28;;
6775;SDS011;3425;51.376;5.222;2024-02-26T05:19:57;51.53;;;48.72;;
6775;SDS011;3425;51.376;5.222;2024-02-26T05:22:25;52.50;;;49.70;;
6775;SDS011;3425;51.376;5.222;2024-02-26T05:24:52;54.63;;;51.63;;
6775;SDS011;3425;51.376;5.222;2024-02-26T05:27:20;53.80;;;50.90;;
6775;SDS011;3425;51.376;5.222;2024-02-26T05:29:47;54.65;;;51.45;;
6775;SDS011;3425;51.376;5.222;2024-02-26T05:32:15;53.80;;;50.80;;
6775;SDS011;3425;51.376;5.222;2024-02-26T05:34:42;53.92;;;51.03;;
6775;SDS011;3425;51.376;5.222;2024-02-26T05:37:09;57.17;;;54.08;;
6775;SDS011;3425;51.376;5.222;2024-02-26T05:39:37;56.50;;;53.40;;
6775;SDS011;3425;51.376;5.222;2024-02-26T05:42:05;57.55;;;54.45;;
6775;SDS011;3425;51.376;5.222;2024-02-26T05:44:32;56.30;;;53.25;;
6775;SDS011;3425;51.376;5.222;2024-02-26T05:46:59;58.28;;;55.08;;
6775;SDS011;3425;51.376;5.222;2024-02-26T05:49:30;57.03;;;53.92;;
6775;SDS011;3425;51.376;5.222;2024-02-26T05:51:58;58.70;;;55.40;;
6775;SDS011;3425;51.376;5.222;2024-02-26T05:54:26;59.47;;;56.17;;
6775;SDS011;3425;51.376;5.222;2024-02-26T05:56:53;59.60;;;56.20;;
6775;SDS011;3425;51.376;5.222;2024-02-26T05:59:20;60.28;;;56.95;;
6775;SDS011;3425;51.376;5.222;2024-02-26T06:01:48;59.97;;;56.67;;
6775;SDS011;3425;51.376;5.222;2024-02-26T06:04:15;61.72;;;58.33;;
6775;SDS011;3425;51.376;5.222;2024-02-26T06:06:44;62.63;;;59.13;;
6775;SDS011;3425;51.376;5.222;2024-02-26T06:09:14;61.45;;;58.05;;
6775;SDS011;3425;51.376;5.222;2024-02-26T06:11:42;63.33;;;59.75;;
6775;SDS011;3425;51.376;5.222;2024-02-26T06:14:09;61.90;;;58.50;;
6775;SDS011;3425;51.376;5.222;2024-02-26T06:16:37;63.03;;;59.53;;
6775;SDS011;3425;51.376;5.222;2024-02-26T06:19:05;60.83;;;57.42;;
6775;SDS011;3425;51.376;5.222;2024-02-26T06:21:36;61.67;;;58.28;;
6775;SDS011;3425;51.376;5.222;2024-02-26T06:24:03;60.40;;;57.00;;
6775;SDS011;3425;51.376;5.222;2024-02-26T06:26:31;62.75;;;59.15;;
6775;SDS011;3425;51.376;5.222;2024-02-26T06:28:59;62.75;;;59.15;;
6775;SDS011;3425;51.376;5.222;2024-02-26T06:31:27;64.15;;;60.45;;
6775;SDS011;3425;51.376;5.222;2024-02-26T06:33:54;63.40;;;59.80;;
6775;SDS011;3425;51.376;5.222;2024-02-26T06:36:22;64.38;;;60.67;;
6775;SDS011;3425;51.376;5.222;2024-02-26T06:38:50;65.82;;;61.97;;
6775;SDS011;3425;51.376;5.222;2024-02-26T06:41:18;66.18;;;62.30;;
6775;SDS011;3425;51.376;5.222;2024-02-26T06:43:45;65.82;;;61.95;;
6775;SDS011;3425;51.376;5.222;2024-02-26T06:46:12;68.70;;;64.50;;
6775;SDS011;3425;51.376;5.222;2024-02-26T06:48:39;65.85;;;62.03;;
6775;SDS011;3425;51.376;5.222;2024-02-26T06:51:07;66.88;;;62.92;;
6775;SDS011;3425;51.376;5.222;2024-02-26T06:53:34;69.05;;;64.95;;
6775;SDS011;3425;51.376;5.222;2024-02-26T06:56:01;69.72;;;65.63;;
6775;SDS011;3425;51.376;5.222;2024-02-26T06:58:30;70.45;;;66.25;;
6775;SDS011;3425;51.376;5.222;2024-02-26T07:00:57;72.20;;;67.70;;
6775;SDS011;3425;51.376;5.222;2024-02-26T07:03:24;71.80;;;67.50;;
6775;SDS011;3425;51.376;5.222;2024-02-26T07:05:52;71.28;;;67.05;;
6775;SDS011;3425;51.376;5.222;2024-02-26T07:08:19;72.55;;;67.93;;
6775;SDS011;3425;51.376;5.222;2024-02-26T07:10:47;73.00;;;68.60;;
6775;SDS011;3425;51.376;5.222;2024-02-26T07:13:15;74.18;;;69.78;;
6775;SDS011;3425;51.376;5.222;2024-02-26T07:15:42;74.43;;;70.03;;
6775;SDS011;3425;51.376;5.222;2024-02-26T07:18:09;73.38;;;69.07;;
6775;SDS011;3425;51.376;5.222;2024-02-26T07:20:37;75.43;;;70.93;;
6775;SDS011;3425;51.376;5.222;2024-02-26T07:23:04;75.70;;;71.20;;
6775;SDS011;3425;51.376;5.222;2024-02-26T07:25:33;74.82;;;70.32;;
6775;SDS011;3425;51.376;5.222;2024-02-26T07:28:00;74.53;;;70.13;;
6775;SDS011;3425;51.376;5.222;2024-02-26T07:30:29;75.53;;;71.03;;
6775;SDS011;3425;51.376;5.222;2024-02-26T07:32:57;74.35;;;69.85;;
6775;SDS011;3425;51.376;5.222;2024-02-26T07:35:24;75.75;;;71.15;;
6775;SDS011;3425;51.376;5.222;2024-02-26T07:37:53;74.28;;;69.80;;
6775;SDS011;3425;51.376;5.222;2024-02-26T07:40:21;75.55;;;71.05;;
6775;SDS011;3425;51.376;5.222;2024-02-26T07:42:48;74.30;;;69.90;;
6775;SDS011;3425;51.376;5.222;2024-02-26T07:45:15;74.15;;;69.72;;
6775;SDS011;3425;51.376;5.222;2024-02-26T07:47:46;74.60;;;70.10;;
6775;SDS011;3425;51.376;5.222;2024-02-26T07:50:14;74.63;;;70.20;;
6775;SDS011;3425;51.376;5.222;2024-02-26T07:52:41;74.13;;;69.75;;
6775;SDS011;3425;51.376;5.222;2024-02-26T07:55:09;74.00;;;69.63;;
6775;SDS011;3425;51.376;5.222;2024-02-26T07:57:36;73.07;;;68.78;;
6775;SDS011;3425;51.376;5.222;2024-02-26T08:00:05;75.45;;;70.85;;
6775;SDS011;3425;51.376;5.222;2024-02-26T08:02:36;76.65;;;72.03;;
6775;SDS011;3425;51.376;5.222;2024-02-26T08:05:04;76.03;;;71.47;;
6775;SDS011;3425;51.376;5.222;2024-02-26T08:07:31;76.60;;;72.00;;
6775;SDS011;3425;51.376;5.222;2024-02-26T08:09:59;74.63;;;70.22;;
6775;SDS011;3425;51.376;5.222;2024-02-26T08:12:26;75.10;;;70.60;;
6775;SDS011;3425;51.376;5.222;2024-02-26T08:14:53;74.82;;;70.38;;
6775;SDS011;3425;51.376;5.222;2024-02-26T08:17:22;75.55;;;70.95;;
6775;SDS011;3425;51.376;5.222;2024-02-26T08:19:49;76.88;;;72.18;;
6775;SDS011;3425;51.376;5.222;2024-02-26T08:22:16;75.45;;;70.95;;
6775;SDS011;3425;51.376;5.222;2024-02-26T08:24:44;78.20;;;73.40;;
6775;SDS011;3425;51.376;5.222;2024-02-26T08:27:11;79.75;;;74.95;;
6775;SDS011;3425;51.376;5.222;2024-02-26T08:29:38;78.15;;;73.45;;
6775;SDS011;3425;51.376;5.222;2024-02-26T08:32:06;80.95;;;75.75;;
6775;SDS011;3425;51.376;5.222;2024-02-26T08:34:33;79.07;;;74.32;;
6775;SDS011;3425;51.376;5.222;2024-02-26T08:37:02;81.50;;;76.30;;
6775;SDS011;3425;51.376;5.222;2024-02-26T08:39:29;82.03;;;77.03;;
6775;SDS011;3425;51.376;5.222;2024-02-26T08:41:56;80.00;;;75.18;;
6775;SDS011;3425;51.376;5.222;2024-02-26T08:44:25;80.68;;;75.78;;
6775;SDS011;3425;51.376;5.222;2024-02-26T08:46:52;79.65;;;74.85;;
6775;SDS011;3425;51.376;5.222;2024-02-26T08:49:20;80.97;;;75.97;;
6775;SDS011;3425;51.376;5.222;2024-02-26T08:51:50;80.45;;;75.55;;
6775;SDS011;3425;51.376;5.222;2024-02-26T08:54:17;79.25;;;74.47;;
6775;SDS011;3425;51.376;5.222;2024-02-26T08:56:44;78.35;;;73.55;;
6775;SDS011;3425;51.376;5.222;2024-02-26T08:59:12;78.63;;;73.82;;
6775;SDS011;3425;51.376;5.222;2024-02-26T09:01:39;78.10;;;73.20;;
6775;SDS011;3425;51.376;5.222;2024-02-26T09:04:08;77.22;;;72.57;;
6775;SDS011;3425;51.376;5.222;2024-02-26T09:06:35;78.18;;;73.45;;
6775;SDS011;3425;51.376;5.222;2024-02-26T09:09:03;78.43;;;73.72;;
6775;SDS011;3425;51.376;5.222;2024-02-26T09:11:30;80.68;;;75.78;;
6775;SDS011;3425;51.376;5.222;2024-02-26T09:13:58;81.10;;;76.15;;
6775;SDS011;3425;51.376;5.222;2024-02-26T09:16:25;79.28;;;74.47;;
6775;SDS011;3425;51.376;5.222;2024-02-26T09:18:52;80.38;;;75.50;;
6775;SDS011;3425;51.376;5.222;2024-02-26T09:21:19;79.47;;;74.68;;
6775;SDS011;3425;51.376;5.222;2024-02-26T09:23:50;79.53;;;74.72;;
6775;SDS011;3425;51.376;5.222;2024-02-26T09:26:17;81.50;;;76.40;;
6775;SDS011;3425;51.376;5.222;2024-02-26T09:28:45;79.47;;;74.57;;
6775;SDS011;3425;51.376;5.222;2024-02-26T09:31:12;80.28;;;75.28;;
6775;SDS011;3425;51.376;5.222;2024-02-26T09:33:42;80.05;;;75.05;;
6775;SDS011;3425;51.376;5.222;2024-02-26T09:36:10;82.88;;;77.57;;
6775;SDS011;3425;51.376;5.222;2024-02-26T09:38:37;80.78;;;75.80;;
6775;SDS011;3425;51.376;5.222;2024-02-26T09:41:21;81.65;;;76.65;;
6775;SDS011;3425;51.376;5.222;2024-02-26T09:43:48;82.60;;;77.53;;
6775;SDS011;3425;51.376;5.222;2024-02-26T09:46:19;80.43;;;75.47;;
6775;SDS011;3425;51.376;5.222;2024-02-26T09:48:47;80.95;;;76.00;;
6775;SDS011;3425;51.376;5.222;2024-02-26T09:51:14;80.07;;;75.18;;
6775;SDS011;3425;51.376;5.222;2024-02-26T09:53:43;80.88;;;75.97;;
6775;SDS011;3425;51.376;5.222;2024-02-26T09:56:12;83.35;;;78.15;;
6775;SDS011;3425;51.376;5.222;2024-02-26T09:58:39;81.68;;;76.68;;
6775;SDS011;3425;51.376;5.222;2024-02-26T10:01:13;81.65;;;76.55;;
6775;SDS011;3425;51.376;5.222;2024-02-26T10:03:42;82.07;;;76.95;;
6775;SDS011;3425;51.376;5.222;2024-02-26T10:06:11;82.25;;;77.25;;
6775;SDS011;3425;51.376;5.222;2024-02-26T10:08:39;82.13;;;77.03;;
6775;SDS011;3425;51.376;5.222;2024-02-26T10:11:06;84.80;;;79.50;;
6775;SDS011;3425;51.376;5.222;2024-02-26T10:13:34;82.50;;;77.45;;
6775;SDS011;3425;51.376;5.222;2024-02-26T10:16:05;83.53;;;78.13;;
6775;SDS011;3425;51.376;5.222;2024-02-26T10:18:48;84.38;;;79.07;;
6775;SDS011;3425;51.376;5.222;2024-02-26T10:21:25;82.35;;;77.15;;
6775;SDS011;3425;51.376;5.222;2024-02-26T10:23:53;83.22;;;78.03;;
6775;SDS011;3425;51.376;5.222;2024-02-26T10:26:21;82.75;;;77.65;;
6775;SDS011;3425;51.376;5.222;2024-02-26T10:28:48;83.68;;;78.47;;
6775;SDS011;3425;51.376;5.222;2024-02-26T10:31:20;83.55;;;78.40;;
6775;SDS011;3425;51.376;5.222;2024-02-26T10:33:48;83.57;;;78.38;;
6775;SDS011;3425;51.376;5.222;2024-02-26T10:36:16;83.47;;;78.25;;
6775;SDS011;3425;51.376;5.222;2024-02-26T10:38:44;84.13;;;78.82;;
6775;SDS011;3425;51.376;5.222;2024-02-26T10:41:14;83.95;;;78.68;;
6775;SDS011;3425;51.376;5.222;2024-02-26T10:43:42;84.50;;;79.20;;
6775;SDS011;3425;51.376;5.222;2024-02-26T10:46:10;85.15;;;79.85;;
6775;SDS011;3425;51.376;5.222;2024-02-26T10:48:38;84.35;;;79.00;;
6775;SDS011;3425;51.376;5.222;2024-02-26T10:51:06;84.07;;;78.78;;
6775;SDS011;3425;51.376;5.222;2024-02-26T10:53:36;83.78;;;78.47;;
6775;SDS011;3425;51.376;5.222;2024-02-26T10:56:04;84.63;;;79.22;;
6775;SDS011;3425;51.376;5.222;2024-02-26T10:58:32;83.65;;;78.40;;
6775;SDS011;3425;51.376;5.222;2024-02-26T11:00:59;84.32;;;79.03;;
6775;SDS011;3425;51.376;5.222;2024-02-26T11:03:27;84.45;;;79.15;;
6775;SDS011;3425;51.376;5.222;2024-02-26T11:05:55;85.80;;;80.50;;
6775;SDS011;3425;51.376;5.222;2024-02-26T11:08:23;84.10;;;78.90;;
6775;SDS011;3425;51.376;5.222;2024-02-26T11:10:52;85.75;;;80.35;;
6775;SDS011;3425;51.376;5.222;2024-02-26T11:13:21;87.00;;;81.55;;
6775;SDS011;3425;51.376;5.222;2024-02-26T11:15:48;87.00;;;81.50;;
6775;SDS011;3425;51.376;5.222;2024-02-26T11:18:17;86.88;;;81.38;;
6775;SDS011;3425;51.376;5.222;2024-02-26T11:20:46;85.68;;;80.38;;
6775;SDS011;3425;51.376;5.222;2024-02-26T11:23:15;87.35;;;81.95;;
6775;SDS011;3425;51.376;5.222;2024-02-26T11:25:43;87.20;;;81.60;;
6775;SDS011;3425;51.376;5.222;2024-02-26T11:28:12;86.95;;;81.65;;
6775;SDS011;3425;51.376;5.222;2024-02-26T11:30:43;86.95;;;81.45;;
6775;SDS011;3425;51.376;5.222;2024-02-26T11:33:11;84.28;;;79.07;;
6775;SDS011;3425;51.376;5.222;2024-02-26T11:35:39;86.45;;;81.00;;
6775;SDS011;3425;51.376;5.222;2024-02-26T11:38:07;86.47;;;81.07;;
6775;SDS011;3425;51.376;5.222;2024-02-26T11:40:38;85.28;;;79.88;;
6775;SDS011;3425;51.376;5.222;2024-02-26T11:43:08;83.65;;;78.55;;
6775;SDS011;3425;51.376;5.222;2024-02-26T11:48:19;86.65;;;81.32;;
6775;SDS011;3425;51.376;5.222;2024-02-26T11:50:48;88.25;;;82.75;;
6775;SDS011;3425;51.376;5.222;2024-02-26T11:53:26;89.10;;;83.53;;
6775;SDS011;3425;51.376;5.222;2024-02-26T11:58:58;90.13;;;84.53;;
6775;SDS011;3425;51.376;5.222;2024-02-26T12:04:16;89.32;;;83.63;;
6775;SDS011;3425;51.376;5.222;2024-02-26T12:06:45;90.43;;;84.63;;
6775;SDS011;3425;51.376;5.222;2024-02-26T12:09:12;91.47;;;85.65;;
6775;SDS011;3425;51.376;5.222;2024-02-26T12:11:40;90.80;;;84.93;;
6775;SDS011;3425;51.376;5.222;2024-02-26T12:14:08;91.32;;;85.43;;
6775;SDS011;3425;51.376;5.222;2024-02-26T12:16:40;93.70;;;87.65;;
6775;SDS011;3425;51.376;5.222;2024-02-26T12:19:11;92.95;;;86.85;;
6775;SDS011;3425;51.376;5.222;2024-02-26T12:21:39;94.00;;;87.97;;
6775;SDS011;3425;51.376;5.222;2024-02-26T12:24:06;94.68;;;88.47;;
6775;SDS011;3425;51.376;5.222;2024-02-26T12:26:35;94.47;;;88.47;;
6775;SDS011;3425;51.376;5.222;2024-02-26T12:29:02;92.75;;;86.85;;
6775;SDS011;3425;51.376;5.222;2024-02-26T12:31:29;91.50;;;85.68;;
6775;SDS011;3425;51.376;5.222;2024-02-26T12:33:57;91.13;;;85.32;;
6775;SDS011;3425;51.376;5.222;2024-02-26T12:36:25;90.97;;;85.18;;
6775;SDS011;3425;51.376;5.222;2024-02-26T12:38:52;91.20;;;85.43;;
6775;SDS011;3425;51.376;5.222;2024-02-26T12:41:20;90.88;;;85.07;;
6775;SDS011;3425;51.376;5.222;2024-02-26T12:43:48;90.57;;;84.68;;
6775;SDS011;3425;51.376;5.222;2024-02-26T12:46:16;91.57;;;85.13;;
6775;SDS011;3425;51.376;5.222;2024-02-26T12:48:43;87.90;;;82.40;;
6775;SDS011;3425;51.376;5.222;2024-02-26T12:51:14;93.40;;;86.88;;
6775;SDS011;3425;51.376;5.222;2024-02-26T12:53:42;90.97;;;85.10;;
6775;SDS011;3425;51.376;5.222;2024-02-26T12:56:10;91.45;;;85.55;;
6775;SDS011;3425;51.376;5.222;2024-02-26T12:58:42;91.47;;;85.57;;
6775;SDS011;3425;51.376;5.222;2024-02-26T13:01:13;92.82;;;86.82;;
6775;SDS011;3425;51.376;5.222;2024-02-26T13:03:41;91.55;;;85.65;;
6775;SDS011;3425;51.376;5.222;2024-02-26T13:06:08;94.50;;;87.57;;
6775;SDS011;3425;51.376;5.222;2024-02-26T13:08:36;96.10;;;89.97;;
6775;SDS011;3425;51.376;5.222;2024-02-26T13:11:04;95.45;;;88.75;;
6775;SDS011;3425;51.376;5.222;2024-02-26T13:13:32;93.38;;;87.40;;
6775;SDS011;3425;51.376;5.222;2024-02-26T13:16:07;93.05;;;87.15;;
6775;SDS011;3425;51.376;5.222;2024-02-26T13:18:34;91.82;;;86.05;;
6775;SDS011;3425;51.376;5.222;2024-02-26T13:21:13;92.80;;;86.82;;
6775;SDS011;3425;51.376;5.222;2024-02-26T13:23:42;92.13;;;86.28;;
6775;SDS011;3425;51.376;5.222;2024-02-26T13:26:11;92.68;;;86.68;;
6775;SDS011;3425;51.376;5.222;2024-02-26T13:28:42;91.55;;;85.32;;
6775;SDS011;3425;51.376;5.222;2024-02-26T13:31:09;92.25;;;86.25;;
6775;SDS011;3425;51.376;5.222;2024-02-26T13:33:36;93.65;;;87.65;;
6775;SDS011;3425;51.376;5.222;2024-02-26T13:36:04;93.32;;;87.32;;
6775;SDS011;3425;51.376;5.222;2024-02-26T13:38:31;94.40;;;88.10;;
6775;SDS011;3425;51.376;5.222;2024-02-26T13:40:58;95.40;;;89.20;;
6775;SDS011;3425;51.376;5.222;2024-02-26T13:43:26;95.07;;;88.90;;
6775;SDS011;3425;51.376;5.222;2024-02-26T13:45:53;98.88;;;92.38;;
6775;SDS011;3425;51.376;5.222;2024-02-26T13:48:21;98.30;;;91.90;;
6775;SDS011;3425;51.376;5.222;2024-02-26T13:50:49;99.05;;;92.45;;
6775;SDS011;3425;51.376;5.222;2024-02-26T13:53:16;99.28;;;92.50;;
6775;SDS011;3425;51.376;5.222;2024-02-26T13:55:43;100.93;;;94.32;;
6775;SDS011;3425;51.376;5.222;2024-02-26T13:58:11;99.45;;;92.93;;
6775;SDS011;3425;51.376;5.222;2024-02-26T14:00:39;99.00;;;92.40;;
6775;SDS011;3425;51.376;5.222;2024-02-26T14:03:09;98.45;;;91.90;;
6775;SDS011;3425;51.376;5.222;2024-02-26T14:05:37;100.10;;;93.40;;
6775;SDS011;3425;51.376;5.222;2024-02-26T14:08:04;97.68;;;91.30;;
6775;SDS011;3425;51.376;5.222;2024-02-26T14:10:32;98.82;;;92.22;;
6775;SDS011;3425;51.376;5.222;2024-02-26T14:13:00;100.03;;;93.20;;
6775;SDS011;3425;51.376;5.222;2024-02-26T14:15:27;97.78;;;91.30;;
6775;SDS011;3425;51.376;5.222;2024-02-26T14:17:56;99.90;;;93.20;;
6775;SDS011;3425;51.376;5.222;2024-02-26T14:20:24;98.78;;;92.28;;
6775;SDS011;3425;51.376;5.222;2024-02-26T14:22:53;98.63;;;92.13;;
6775;SDS011;3425;51.376;5.222;2024-02-26T14:25:20;97.55;;;91.15;;
6775;SDS011;3425;51.376;5.222;2024-02-26T14:27:48;97.53;;;91.13;;
6775;SDS011;3425;51.376;5.222;2024-02-26T14:30:15;97.68;;;91.28;;
6775;SDS011;3425;51.376;5.222;2024-02-26T14:32:43;98.57;;;91.97;;
6775;SDS011;3425;51.376;5.222;2024-02-26T14:35:11;99.28;;;92.68;;
6775;SDS011;3425;51.376;5.222;2024-02-26T14:37:43;100.50;;;93.75;;
6775;SDS011;3425;51.376;5.222;2024-02-26T14:40:14;98.55;;;92.03;;
6775;SDS011;3425;51.376;5.222;2024-02-26T14:42:41;99.40;;;92.80;;
6775;SDS011;3425;51.376;5.222;2024-02-26T14:45:09;97.72;;;91.28;;
6775;SDS011;3425;51.376;5.222;2024-02-26T14:47:38;99.03;;;92.35;;
6775;SDS011;3425;51.376;5.222;2024-02-26T14:50:06;99.05;;;92.50;;
6775;SDS011;3425;51.376;5.222;2024-02-26T14:52:33;99.47;;;92.88;;
6775;SDS011;3425;51.376;5.222;2024-02-26T14:55:00;96.35;;;89.95;;
6775;SDS011;3425;51.376;5.222;2024-02-26T14:57:28;98.53;;;92.03;;
6775;SDS011;3425;51.376;5.222;2024-02-26T14:59:55;100.55;;;93.57;;
6775;SDS011;3425;51.376;5.222;2024-02-26T15:02:22;100.00;;;93.43;;
6775;SDS011;3425;51.376;5.222;2024-02-26T15:04:50;98.95;;;92.45;;
6775;SDS011;3425;51.376;5.222;2024-02-26T15:07:18;99.88;;;93.32;;